sensor_id;sensor_type;location;lat;lon;timestamp;pressure;altitude;pressure_sealevel;temperature;humidity
53526;BME280;40551;50.478;19.378;2022-08-04T00:01:03;98191.10;;;16.65;74.15
53526;BME280;40551;50.478;19.378;2022-08-04T00:03:41;98187.88;;;16.60;74.27
53526;BME280;40551;50.478;19.378;2022-08-04T00:06:28;98188.65;;;16.55;74.44
53526;BME280;40551;50.478;19.378;2022-08-04T00:09:15;98186.64;;;16.52;74.74
53526;BME280;40551;50.478;19.378;2022-08-04T00:11:47;98187.34;;;16.54;74.78
53526;BME280;40551;50.478;19.378;2022-08-04T00:14:16;98183.28;;;16.57;74.89
53526;BME280;40551;50.478;19.378;2022-08-04T00:16:46;98184.03;;;16.62;74.87
53526;BME280;40551;50.478;19.378;2022-08-04T00:19:18;98185.91;;;16.62;74.66
53526;BME280;40551;50.478;19.378;2022-08-04T00:21:53;98186.47;;;16.59;74.31
53526;BME280;40551;50.478;19.378;2022-08-04T00:24:26;98189.78;;;16.52;74.13
53526;BME280;40551;50.478;19.378;2022-08-04T00:26:56;98185.80;;;16.44;74.21
53526;BME280;40551;50.478;19.378;2022-08-04T00:29:26;98185.02;;;16.36;74.33
53526;BME280;40551;50.478;19.378;2022-08-04T00:31:55;98186.37;;;16.35;74.68
53526;BME280;40551;50.478;19.378;2022-08-04T00:34:26;98187.59;;;16.37;74.89
53526;BME280;40551;50.478;19.378;2022-08-04T00:36:56;98188.25;;;16.39;74.94
53526;BME280;40551;50.478;19.378;2022-08-04T00:39:26;98184.30;;;16.38;74.70
53526;BME280;40551;50.478;19.378;2022-08-04T00:42:09;98181.16;;;16.35;74.51
53526;BME280;40551;50.478;19.378;2022-08-04T00:44:55;98184.33;;;16.28;74.38
53526;BME280;40551;50.478;19.378;2022-08-04T00:47:40;98183.25;;;16.18;74.63
53526;BME280;40551;50.478;19.378;2022-08-04T00:50:20;98188.34;;;16.17;74.91
53526;BME280;40551;50.478;19.378;2022-08-04T00:53:05;98189.27;;;16.18;75.04
53526;BME280;40551;50.478;19.378;2022-08-04T00:55:54;98188.23;;;16.16;74.81
53526;BME280;40551;50.478;19.378;2022-08-04T00:58:37;98193.27;;;16.11;74.78
53526;BME280;40551;50.478;19.378;2022-08-04T01:01:18;98188.92;;;16.13;75.05
53526;BME280;40551;50.478;19.378;2022-08-04T01:04:00;98187.60;;;16.12;75.01
53526;BME280;40551;50.478;19.378;2022-08-04T01:06:36;98191.04;;;16.08;74.73
53526;BME280;40551;50.478;19.378;2022-08-04T01:09:25;98189.14;;;15.94;74.83
53526;BME280;40551;50.478;19.378;2022-08-04T01:12:14;98188.54;;;15.86;74.88
53526;BME280;40551;50.478;19.378;2022-08-04T01:15:03;98186.26;;;15.82;75.06
53526;BME280;40551;50.478;19.378;2022-08-04T01:17:45;98183.72;;;15.75;74.99
53526;BME280;40551;50.478;19.378;2022-08-04T01:20:23;98184.48;;;15.68;75.04
53526;BME280;40551;50.478;19.378;2022-08-04T01:23:21;98187.39;;;15.62;75.10
53526;BME280;40551;50.478;19.378;2022-08-04T01:25:59;98186.84;;;15.55;75.17
53526;BME280;40551;50.478;19.378;2022-08-04T01:31:36;98188.11;;;15.46;75.66
53526;BME280;40551;50.478;19.378;2022-08-04T01:34:11;98188.44;;;15.45;75.84
53526;BME280;40551;50.478;19.378;2022-08-04T01:36:45;98185.58;;;15.44;75.99
53526;BME280;40551;50.478;19.378;2022-08-04T01:39:17;98184.22;;;15.42;75.88
53526;BME280;40551;50.478;19.378;2022-08-04T01:42:06;98177.86;;;15.41;76.13
53526;BME280;40551;50.478;19.378;2022-08-04T01:44:39;98179.29;;;15.44;76.27
53526;BME280;40551;50.478;19.378;2022-08-04T01:47:09;98180.33;;;15.44;75.97
53526;BME280;40551;50.478;19.378;2022-08-04T01:49:38;98176.08;;;15.41;75.86
53526;BME280;40551;50.478;19.378;2022-08-04T01:52:09;98178.24;;;15.37;75.78
53526;BME280;40551;50.478;19.378;2022-08-04T01:54:40;98178.42;;;15.32;75.97
53526;BME280;40551;50.478;19.378;2022-08-04T01:57:10;98179.48;;;15.26;75.97
53526;BME280;40551;50.478;19.378;2022-08-04T01:59:59;98177.35;;;15.22;75.89
53526;BME280;40551;50.478;19.378;2022-08-04T02:02:27;98177.11;;;15.19;76.10
53526;BME280;40551;50.478;19.378;2022-08-04T02:04:56;98173.58;;;15.19;76.38
53526;BME280;40551;50.478;19.378;2022-08-04T02:07:35;98177.40;;;15.23;76.40
53526;BME280;40551;50.478;19.378;2022-08-04T02:10:10;98176.63;;;15.28;76.68
53526;BME280;40551;50.478;19.378;2022-08-04T02:12:58;98172.80;;;15.34;76.79
53526;BME280;40551;50.478;19.378;2022-08-04T02:15:39;98170.65;;;15.38;76.71
53526;BME280;40551;50.478;19.378;2022-08-04T02:18:14;98165.14;;;15.39;76.27
53526;BME280;40551;50.478;19.378;2022-08-04T02:20:47;98164.33;;;15.33;75.88
53526;BME280;40551;50.478;19.378;2022-08-04T02:23:23;98166.77;;;15.28;75.89
53526;BME280;40551;50.478;19.378;2022-08-04T02:25:57;98165.41;;;15.24;75.89
53526;BME280;40551;50.478;19.378;2022-08-04T02:28:32;98166.20;;;15.21;76.27
53526;BME280;40551;50.478;19.378;2022-08-04T02:31:13;98165.45;;;15.20;76.19
53526;BME280;40551;50.478;19.378;2022-08-04T02:33:46;98162.46;;;15.19;76.27
53526;BME280;40551;50.478;19.378;2022-08-04T02:36:23;98163.98;;;15.18;76.22
53526;BME280;40551;50.478;19.378;2022-08-04T02:38:57;98163.33;;;15.15;76.22
53526;BME280;40551;50.478;19.378;2022-08-04T02:41:27;98159.06;;;15.13;76.38
53526;BME280;40551;50.478;19.378;2022-08-04T02:43:58;98162.52;;;15.09;76.15
53526;BME280;40551;50.478;19.378;2022-08-04T02:46:28;98163.32;;;15.05;76.13
53526;BME280;40551;50.478;19.378;2022-08-04T02:48:56;98161.48;;;14.99;76.09
53526;BME280;40551;50.478;19.378;2022-08-04T02:51:27;98158.83;;;14.94;76.22
53526;BME280;40551;50.478;19.378;2022-08-04T02:53:58;98157.96;;;14.92;76.35
53526;BME280;40551;50.478;19.378;2022-08-04T02:56:29;98156.95;;;14.92;76.66
53526;BME280;40551;50.478;19.378;2022-08-04T02:59:00;98157.23;;;14.95;76.76
53526;BME280;40551;50.478;19.378;2022-08-04T03:01:28;98158.40;;;14.98;76.87
53526;BME280;40551;50.478;19.378;2022-08-04T03:04:10;98162.16;;;15.03;76.98
53526;BME280;40551;50.478;19.378;2022-08-04T03:10:27;98161.89;;;15.04;76.63
53526;BME280;40551;50.478;19.378;2022-08-04T03:13:38;98163.77;;;15.04;76.55
53526;BME280;40551;50.478;19.378;2022-08-04T03:16:32;98162.79;;;14.98;76.18
53526;BME280;40551;50.478;19.378;2022-08-04T03:22:21;98165.55;;;14.84;76.28
53526;BME280;40551;50.478;19.378;2022-08-04T03:25:13;98171.63;;;14.80;76.20
53526;BME280;40551;50.478;19.378;2022-08-04T03:31:06;98166.80;;;14.71;76.39
53526;BME280;40551;50.478;19.378;2022-08-04T03:33:45;98169.40;;;14.67;76.70
53526;BME280;40551;50.478;19.378;2022-08-04T03:36:40;98172.29;;;14.72;76.90
53526;BME280;40551;50.478;19.378;2022-08-04T03:39:41;98172.23;;;14.74;76.76
53526;BME280;40551;50.478;19.378;2022-08-04T03:42:46;98173.31;;;14.74;76.82
53526;BME280;40551;50.478;19.378;2022-08-04T03:46:04;98171.49;;;14.86;77.60
53526;BME280;40551;50.478;19.378;2022-08-04T03:48:54;98173.40;;;15.47;78.97
53526;BME280;40551;50.478;19.378;2022-08-04T03:51:36;98172.57;;;16.10;79.00
53526;BME280;40551;50.478;19.378;2022-08-04T03:54:58;98175.57;;;16.77;78.13
53526;BME280;40551;50.478;19.378;2022-08-04T04:00:33;98169.28;;;17.99;75.24
53526;BME280;40551;50.478;19.378;2022-08-04T04:03:25;98168.98;;;18.40;73.98
53526;BME280;40551;50.478;19.378;2022-08-04T04:06:51;98169.89;;;18.85;73.20
53526;BME280;40551;50.478;19.378;2022-08-04T04:12:54;98172.09;;;20.24;71.51
53526;BME280;40551;50.478;19.378;2022-08-04T04:15:42;98171.58;;;20.80;69.47
53526;BME280;40551;50.478;19.378;2022-08-04T04:18:25;98170.11;;;21.26;67.91
53526;BME280;40551;50.478;19.378;2022-08-04T04:21:25;98174.48;;;21.58;66.48
53526;BME280;40551;50.478;19.378;2022-08-04T04:24:05;98168.16;;;21.99;65.25
53526;BME280;40551;50.478;19.378;2022-08-04T04:26:53;98168.23;;;22.39;64.60
53526;BME280;40551;50.478;19.378;2022-08-04T04:29:36;98170.83;;;22.88;63.81
53526;BME280;40551;50.478;19.378;2022-08-04T04:32:20;98167.66;;;23.39;62.61
53526;BME280;40551;50.478;19.378;2022-08-04T04:35:04;98164.65;;;23.81;61.44
53526;BME280;40551;50.478;19.378;2022-08-04T04:37:56;98167.58;;;24.18;60.26
53526;BME280;40551;50.478;19.378;2022-08-04T04:40:47;98172.05;;;24.63;59.69
53526;BME280;40551;50.478;19.378;2022-08-04T04:43:44;98177.74;;;25.22;58.97
53526;BME280;40551;50.478;19.378;2022-08-04T04:46:31;98176.80;;;25.79;57.34
53526;BME280;40551;50.478;19.378;2022-08-04T04:49:10;98172.91;;;26.27;56.38
53526;BME280;40551;50.478;19.378;2022-08-04T04:51:47;98182.02;;;26.87;55.71
53526;BME280;40551;50.478;19.378;2022-08-04T04:54:24;98179.22;;;27.53;54.97
53526;BME280;40551;50.478;19.378;2022-08-04T04:57:02;98182.80;;;28.21;53.54
53526;BME280;40551;50.478;19.378;2022-08-04T04:59:37;98182.53;;;28.80;51.94
53526;BME280;40551;50.478;19.378;2022-08-04T05:02:26;98185.06;;;29.27;50.60
53526;BME280;40551;50.478;19.378;2022-08-04T05:05:27;98192.40;;;29.73;49.02
53526;BME280;40551;50.478;19.378;2022-08-04T05:08:10;98187.35;;;30.19;47.98
53526;BME280;40551;50.478;19.378;2022-08-04T05:11:19;98182.41;;;30.59;46.88
53526;BME280;40551;50.478;19.378;2022-08-04T05:13:55;98188.69;;;30.85;46.12
53526;BME280;40551;50.478;19.378;2022-08-04T05:16:49;98189.02;;;31.14;45.69
53526;BME280;40551;50.478;19.378;2022-08-04T05:19:22;98189.92;;;31.50;45.36
53526;BME280;40551;50.478;19.378;2022-08-04T05:22:00;98193.20;;;31.89;44.76
53526;BME280;40551;50.478;19.378;2022-08-04T05:24:33;98189.27;;;32.16;43.67
53526;BME280;40551;50.478;19.378;2022-08-04T05:27:11;98185.80;;;32.41;42.98
53526;BME280;40551;50.478;19.378;2022-08-04T05:29:47;98194.06;;;32.73;42.39
53526;BME280;40551;50.478;19.378;2022-08-04T05:32:21;98191.77;;;33.08;42.14
53526;BME280;40551;50.478;19.378;2022-08-04T05:34:56;98193.58;;;33.52;41.59
53526;BME280;40551;50.478;19.378;2022-08-04T05:37:28;98193.21;;;33.95;41.00
53526;BME280;40551;50.478;19.378;2022-08-04T05:40:00;98189.79;;;34.28;40.23
53526;BME280;40551;50.478;19.378;2022-08-04T05:42:31;98192.05;;;34.59;39.76
53526;BME280;40551;50.478;19.378;2022-08-04T05:45:01;98189.48;;;34.97;39.51
53526;BME280;40551;50.478;19.378;2022-08-04T05:47:32;98188.70;;;35.30;38.94
53526;BME280;40551;50.478;19.378;2022-08-04T05:50:01;98187.70;;;35.65;38.13
53526;BME280;40551;50.478;19.378;2022-08-04T05:52:31;98187.48;;;35.98;37.78
53526;BME280;40551;50.478;19.378;2022-08-04T05:54:59;98188.47;;;36.28;36.87
53526;BME280;40551;50.478;19.378;2022-08-04T05:57:28;98187.04;;;36.57;36.73
53526;BME280;40551;50.478;19.378;2022-08-04T06:00:00;98188.05;;;36.96;36.34
53526;BME280;40551;50.478;19.378;2022-08-04T06:02:51;98191.95;;;37.28;35.16
53526;BME280;40551;50.478;19.378;2022-08-04T06:05:22;98190.49;;;37.34;34.82
53526;BME280;40551;50.478;19.378;2022-08-04T06:07:50;98196.98;;;37.51;34.37
53526;BME280;40551;50.478;19.378;2022-08-04T06:10:40;98194.78;;;37.69;33.88
53526;BME280;40551;50.478;19.378;2022-08-04T06:13:12;98195.47;;;37.85;33.76
53526;BME280;40551;50.478;19.378;2022-08-04T06:16:02;98193.67;;;37.90;32.88
53526;BME280;40551;50.478;19.378;2022-08-04T06:18:32;98198.49;;;37.93;32.85
53526;BME280;40551;50.478;19.378;2022-08-04T06:21:25;98196.74;;;38.18;32.70
53526;BME280;40551;50.478;19.378;2022-08-04T06:23:55;98200.97;;;38.33;32.03
53526;BME280;40551;50.478;19.378;2022-08-04T06:26:34;98204.70;;;38.27;31.49
53526;BME280;40551;50.478;19.378;2022-08-04T06:29:03;98202.95;;;38.23;30.96
53526;BME280;40551;50.478;19.378;2022-08-04T06:31:33;98201.63;;;38.14;31.04
53526;BME280;40551;50.478;19.378;2022-08-04T06:34:33;98203.64;;;38.26;31.19
53526;BME280;40551;50.478;19.378;2022-08-04T06:37:02;98206.46;;;38.23;30.67
53526;BME280;40551;50.478;19.378;2022-08-04T06:39:31;98204.67;;;38.07;30.60
53526;BME280;40551;50.478;19.378;2022-08-04T06:42:02;98208.47;;;37.92;29.56
53526;BME280;40551;50.478;19.378;2022-08-04T06:44:55;98208.19;;;37.56;29.23
53526;BME280;40551;50.478;19.378;2022-08-04T06:47:25;98207.55;;;37.09;28.33
53526;BME280;40551;50.478;19.378;2022-08-04T06:49:56;98206.98;;;36.71;29.19
53526;BME280;40551;50.478;19.378;2022-08-04T06:52:44;98209.23;;;36.34;29.32
53526;BME280;40551;50.478;19.378;2022-08-04T06:55:13;98204.75;;;36.17;29.66
53526;BME280;40551;50.478;19.378;2022-08-04T06:57:42;98199.23;;;35.80;29.15
53526;BME280;40551;50.478;19.378;2022-08-04T07:00:14;98203.46;;;35.79;30.44
53526;BME280;40551;50.478;19.378;2022-08-04T07:02:46;98198.73;;;36.04;30.96
53526;BME280;40551;50.478;19.378;2022-08-04T07:05:16;98204.57;;;36.45;31.09
53526;BME280;40551;50.478;19.378;2022-08-04T07:07:45;98202.98;;;36.76;30.81
53526;BME280;40551;50.478;19.378;2022-08-04T07:10:26;98204.86;;;36.98;29.48
53526;BME280;40551;50.478;19.378;2022-08-04T07:12:56;98203.44;;;37.15;29.48
53526;BME280;40551;50.478;19.378;2022-08-04T07:15:25;98203.09;;;37.36;28.94
53526;BME280;40551;50.478;19.378;2022-08-04T07:17:54;98197.63;;;37.44;27.81
53526;BME280;40551;50.478;19.378;2022-08-04T07:20:23;98199.11;;;37.34;27.39
53526;BME280;40551;50.478;19.378;2022-08-04T07:23:04;98199.89;;;37.16;26.52
53526;BME280;40551;50.478;19.378;2022-08-04T07:25:34;98197.86;;;36.65;26.61
53526;BME280;40551;50.478;19.378;2022-08-04T07:28:24;98196.68;;;36.18;26.66
53526;BME280;40551;50.478;19.378;2022-08-04T07:30:55;98192.94;;;35.49;27.37
53526;BME280;40551;50.478;19.378;2022-08-04T07:33:24;98193.20;;;35.16;27.71
53526;BME280;40551;50.478;19.378;2022-08-04T07:35:54;98199.04;;;34.63;27.32
53526;BME280;40551;50.478;19.378;2022-08-04T07:38:39;98202.02;;;33.87;27.68
53526;BME280;40551;50.478;19.378;2022-08-04T07:41:23;98204.44;;;33.02;28.68
53526;BME280;40551;50.478;19.378;2022-08-04T07:44:07;98204.82;;;32.11;29.54
53526;BME280;40551;50.478;19.378;2022-08-04T07:46:36;98204.23;;;31.44;30.10
53526;BME280;40551;50.478;19.378;2022-08-04T07:49:06;98208.46;;;30.93;31.14
53526;BME280;40551;50.478;19.378;2022-08-04T07:51:36;98209.63;;;30.42;31.44
53526;BME280;40551;50.478;19.378;2022-08-04T07:54:06;98214.66;;;29.93;32.17
53526;BME280;40551;50.478;19.378;2022-08-04T07:56:37;98209.51;;;29.49;32.37
53526;BME280;40551;50.478;19.378;2022-08-04T07:59:06;98207.17;;;29.08;33.30
53526;BME280;40551;50.478;19.378;2022-08-04T08:01:35;98204.39;;;28.84;34.51
53526;BME280;40551;50.478;19.378;2022-08-04T08:04:06;98200.80;;;28.76;35.45
53526;BME280;40551;50.478;19.378;2022-08-04T08:06:36;98202.27;;;28.64;34.78
53526;BME280;40551;50.478;19.378;2022-08-04T08:09:12;98203.27;;;28.42;34.43
53526;BME280;40551;50.478;19.378;2022-08-04T08:11:43;98204.91;;;28.32;35.55
53526;BME280;40551;50.478;19.378;2022-08-04T08:14:32;98199.95;;;28.26;34.91
53526;BME280;40551;50.478;19.378;2022-08-04T08:17:02;98198.07;;;28.20;35.30
53526;BME280;40551;50.478;19.378;2022-08-04T08:19:30;98201.00;;;28.19;35.84
53526;BME280;40551;50.478;19.378;2022-08-04T08:21:59;98199.72;;;28.17;35.12
53526;BME280;40551;50.478;19.378;2022-08-04T08:24:30;98197.00;;;28.02;35.22
53526;BME280;40551;50.478;19.378;2022-08-04T08:26:59;98197.29;;;27.86;35.33
53526;BME280;40551;50.478;19.378;2022-08-04T08:29:32;98199.32;;;27.63;35.20
53526;BME280;40551;50.478;19.378;2022-08-04T08:32:02;98200.66;;;27.52;35.94
53526;BME280;40551;50.478;19.378;2022-08-04T08:34:36;98203.67;;;27.45;35.97
53526;BME280;40551;50.478;19.378;2022-08-04T08:37:11;98202.17;;;27.38;36.24
53526;BME280;40551;50.478;19.378;2022-08-04T08:39:47;98203.83;;;27.42;37.73
53526;BME280;40551;50.478;19.378;2022-08-04T08:42:44;98205.45;;;27.51;36.85
53526;BME280;40551;50.478;19.378;2022-08-04T08:45:39;98202.48;;;27.58;36.88
53526;BME280;40551;50.478;19.378;2022-08-04T08:48:38;98207.61;;;27.66;37.14
53526;BME280;40551;50.478;19.378;2022-08-04T08:51:27;98206.31;;;27.82;37.74
53526;BME280;40551;50.478;19.378;2022-08-04T08:54:20;98202.88;;;27.87;36.55
53526;BME280;40551;50.478;19.378;2022-08-04T08:56:58;98205.61;;;27.85;36.69
53526;BME280;40551;50.478;19.378;2022-08-04T08:59:51;98210.76;;;27.83;37.36
53526;BME280;40551;50.478;19.378;2022-08-04T09:02:40;98209.29;;;27.77;36.41
53526;BME280;40551;50.478;19.378;2022-08-04T09:05:27;98207.77;;;27.79;36.91
53526;BME280;40551;50.478;19.378;2022-08-04T09:08:09;98203.70;;;27.75;36.23
53526;BME280;40551;50.478;19.378;2022-08-04T09:10:45;98204.90;;;27.74;37.17
53526;BME280;40551;50.478;19.378;2022-08-04T09:13:20;98206.95;;;27.85;37.75
53526;BME280;40551;50.478;19.378;2022-08-04T09:15:58;98202.22;;;27.92;37.11
53526;BME280;40551;50.478;19.378;2022-08-04T09:18:37;98209.16;;;27.92;36.07
53526;BME280;40551;50.478;19.378;2022-08-04T09:21:15;98215.14;;;27.85;36.96
53526;BME280;40551;50.478;19.378;2022-08-04T09:23:50;98216.52;;;27.82;36.37
53526;BME280;40551;50.478;19.378;2022-08-04T09:26:28;98214.14;;;27.77;36.50
53526;BME280;40551;50.478;19.378;2022-08-04T09:29:06;98208.70;;;27.78;36.74
53526;BME280;40551;50.478;19.378;2022-08-04T09:31:49;98208.18;;;27.80;36.63
53526;BME280;40551;50.478;19.378;2022-08-04T09:34:46;98211.33;;;27.85;37.16
53526;BME280;40551;50.478;19.378;2022-08-04T09:37:41;98215.08;;;27.82;36.56
53526;BME280;40551;50.478;19.378;2022-08-04T09:40:19;98212.71;;;27.84;37.08
53526;BME280;40551;50.478;19.378;2022-08-04T09:43:11;98212.64;;;27.83;36.89
53526;BME280;40551;50.478;19.378;2022-08-04T09:45:52;98207.19;;;27.80;36.69
53526;BME280;40551;50.478;19.378;2022-08-04T09:48:33;98208.17;;;27.80;36.36
53526;BME280;40551;50.478;19.378;2022-08-04T09:51:18;98202.95;;;27.71;36.84
53526;BME280;40551;50.478;19.378;2022-08-04T09:53:54;98198.73;;;27.72;37.41
53526;BME280;40551;50.478;19.378;2022-08-04T09:56:29;98195.15;;;27.83;37.67
53526;BME280;40551;50.478;19.378;2022-08-04T09:59:17;98193.54;;;27.97;37.58
53526;BME280;40551;50.478;19.378;2022-08-04T10:01:52;98188.10;;;28.04;37.77
53526;BME280;40551;50.478;19.378;2022-08-04T10:04:30;98191.11;;;28.20;37.62
53526;BME280;40551;50.478;19.378;2022-08-04T10:07:37;98186.73;;;28.18;36.64
53526;BME280;40551;50.478;19.378;2022-08-04T10:10:31;98182.28;;;28.13;36.88
53526;BME280;40551;50.478;19.378;2022-08-04T10:13:19;98183.47;;;28.21;37.88
53526;BME280;40551;50.478;19.378;2022-08-04T10:16:03;98185.46;;;28.30;37.25
53526;BME280;40551;50.478;19.378;2022-08-04T10:18:47;98182.53;;;28.41;37.51
53526;BME280;40551;50.478;19.378;2022-08-04T10:21:25;98178.88;;;28.51;37.28
53526;BME280;40551;50.478;19.378;2022-08-04T10:24:10;98181.77;;;28.48;35.90
53526;BME280;40551;50.478;19.378;2022-08-04T10:26:48;98179.96;;;28.41;36.51
53526;BME280;40551;50.478;19.378;2022-08-04T10:29:29;98175.89;;;28.45;37.10
53526;BME280;40551;50.478;19.378;2022-08-04T10:32:06;98179.80;;;28.48;36.20
53526;BME280;40551;50.478;19.378;2022-08-04T10:34:42;98179.96;;;28.31;36.09
53526;BME280;40551;50.478;19.378;2022-08-04T10:37:18;98180.61;;;28.28;37.15
53526;BME280;40551;50.478;19.378;2022-08-04T10:39:53;98178.98;;;28.32;37.20
53526;BME280;40551;50.478;19.378;2022-08-04T10:42:49;98179.90;;;28.34;37.18
53526;BME280;40551;50.478;19.378;2022-08-04T10:45:24;98179.23;;;28.41;37.33
53526;BME280;40551;50.478;19.378;2022-08-04T10:48:00;98180.20;;;28.47;36.74
53526;BME280;40551;50.478;19.378;2022-08-04T10:50:35;98181.50;;;28.42;37.18
53526;BME280;40551;50.478;19.378;2022-08-04T10:53:08;98180.31;;;28.36;36.49
53526;BME280;40551;50.478;19.378;2022-08-04T10:55:45;98176.58;;;28.30;36.72
53526;BME280;40551;50.478;19.378;2022-08-04T10:58:41;98175.80;;;28.25;36.93
53526;BME280;40551;50.478;19.378;2022-08-04T11:01:21;98173.89;;;28.30;37.04
53526;BME280;40551;50.478;19.378;2022-08-04T11:04:16;98168.84;;;28.35;37.51
53526;BME280;40551;50.478;19.378;2022-08-04T11:06:55;98165.16;;;28.51;37.67
53526;BME280;40551;50.478;19.378;2022-08-04T11:09:26;98171.52;;;28.60;37.38
53526;BME280;40551;50.478;19.378;2022-08-04T11:12:00;98169.47;;;28.59;36.62
53526;BME280;40551;50.478;19.378;2022-08-04T11:14:35;98166.51;;;28.65;36.97
53526;BME280;40551;50.478;19.378;2022-08-04T11:17:10;98166.31;;;28.76;36.69
53526;BME280;40551;50.478;19.378;2022-08-04T11:19:47;98170.64;;;28.76;36.89
53526;BME280;40551;50.478;19.378;2022-08-04T11:22:27;98173.45;;;28.74;36.23
53526;BME280;40551;50.478;19.378;2022-08-04T11:25:07;98171.85;;;28.71;36.61
53526;BME280;40551;50.478;19.378;2022-08-04T11:27:48;98176.02;;;28.85;37.18
53526;BME280;40551;50.478;19.378;2022-08-04T11:30:19;98178.55;;;28.93;36.56
53526;BME280;40551;50.478;19.378;2022-08-04T11:32:52;98170.86;;;28.98;36.32
53526;BME280;40551;50.478;19.378;2022-08-04T11:35:31;98168.46;;;29.05;35.92
53526;BME280;40551;50.478;19.378;2022-08-04T11:38:08;98166.55;;;29.10;36.16
53526;BME280;40551;50.478;19.378;2022-08-04T11:40:40;98169.89;;;29.18;36.45
53526;BME280;40551;50.478;19.378;2022-08-04T11:43:26;98167.02;;;29.18;36.78
53526;BME280;40551;50.478;19.378;2022-08-04T11:46:23;98164.52;;;29.14;36.35
53526;BME280;40551;50.478;19.378;2022-08-04T11:49:00;98164.77;;;29.10;35.54
53526;BME280;40551;50.478;19.378;2022-08-04T11:51:30;98161.30;;;28.97;35.21
53526;BME280;40551;50.478;19.378;2022-08-04T11:54:01;98161.79;;;28.87;35.19
53526;BME280;40551;50.478;19.378;2022-08-04T11:56:30;98162.45;;;28.80;35.33
53526;BME280;40551;50.478;19.378;2022-08-04T11:59:06;98157.52;;;28.75;35.31
53526;BME280;40551;50.478;19.378;2022-08-04T12:01:41;98154.69;;;28.73;36.12
53526;BME280;40551;50.478;19.378;2022-08-04T12:04:22;98151.56;;;28.79;36.26
53526;BME280;40551;50.478;19.378;2022-08-04T12:06:55;98152.67;;;28.81;35.94
53526;BME280;40551;50.478;19.378;2022-08-04T12:09:57;98146.01;;;28.91;37.13
53526;BME280;40551;50.478;19.378;2022-08-04T12:12:36;98149.27;;;29.02;36.66
53526;BME280;40551;50.478;19.378;2022-08-04T12:15:14;98150.02;;;29.09;36.20
53526;BME280;40551;50.478;19.378;2022-08-04T12:17:48;98151.19;;;29.08;35.62
53526;BME280;40551;50.478;19.378;2022-08-04T12:20:24;98149.23;;;29.03;35.13
53526;BME280;40551;50.478;19.378;2022-08-04T12:23:14;98146.74;;;28.93;35.51
53526;BME280;40551;50.478;19.378;2022-08-04T12:25:47;98141.86;;;28.93;35.69
53526;BME280;40551;50.478;19.378;2022-08-04T12:28:25;98140.88;;;28.95;35.70
53526;BME280;40551;50.478;19.378;2022-08-04T12:31:02;98135.12;;;28.90;34.81
53526;BME280;40551;50.478;19.378;2022-08-04T12:33:41;98134.80;;;28.91;35.81
53526;BME280;40551;50.478;19.378;2022-08-04T12:36:36;98131.31;;;28.90;36.17
53526;BME280;40551;50.478;19.378;2022-08-04T12:39:10;98125.40;;;28.84;35.72
53526;BME280;40551;50.478;19.378;2022-08-04T12:41:43;98124.27;;;28.81;35.73
53526;BME280;40551;50.478;19.378;2022-08-04T12:44:14;98126.23;;;28.79;35.38
53526;BME280;40551;50.478;19.378;2022-08-04T12:47:04;98123.63;;;28.74;35.29
53526;BME280;40551;50.478;19.378;2022-08-04T12:49:56;98120.34;;;28.68;35.46
53526;BME280;40551;50.478;19.378;2022-08-04T12:52:43;98114.58;;;28.69;35.65
53526;BME280;40551;50.478;19.378;2022-08-04T12:55:47;98112.82;;;28.70;35.87
53526;BME280;40551;50.478;19.378;2022-08-04T12:58:52;98109.05;;;28.76;35.80
53526;BME280;40551;50.478;19.378;2022-08-04T13:01:46;98112.20;;;28.79;35.59
53526;BME280;40551;50.478;19.378;2022-08-04T13:04:36;98117.35;;;28.80;36.25
53526;BME280;40551;50.478;19.378;2022-08-04T13:07:11;98109.80;;;28.84;35.88
53526;BME280;40551;50.478;19.378;2022-08-04T13:09:40;98108.61;;;28.88;35.73
53526;BME280;40551;50.478;19.378;2022-08-04T13:12:14;98105.65;;;28.89;35.91
53526;BME280;40551;50.478;19.378;2022-08-04T13:14:43;98108.70;;;28.94;36.12
53526;BME280;40551;50.478;19.378;2022-08-04T13:17:14;98110.82;;;28.91;35.16
53526;BME280;40551;50.478;19.378;2022-08-04T13:19:46;98105.14;;;28.84;34.91
53526;BME280;40551;50.478;19.378;2022-08-04T13:22:24;98106.50;;;28.82;34.47
53526;BME280;40551;50.478;19.378;2022-08-04T13:25:13;98099.22;;;28.78;34.03
53526;BME280;40551;50.478;19.378;2022-08-04T13:28:02;98096.30;;;28.80;34.78
53526;BME280;40551;50.478;19.378;2022-08-04T13:30:54;98094.40;;;28.82;34.44
53526;BME280;40551;50.478;19.378;2022-08-04T13:33:32;98089.30;;;28.84;34.93
53526;BME280;40551;50.478;19.378;2022-08-04T13:36:03;98092.16;;;28.86;34.49
53526;BME280;40551;50.478;19.378;2022-08-04T13:38:46;98090.20;;;28.88;34.40
53526;BME280;40551;50.478;19.378;2022-08-04T13:41:17;98092.27;;;28.86;34.32
53526;BME280;40551;50.478;19.378;2022-08-04T13:43:48;98085.55;;;28.81;34.74
53526;BME280;40551;50.478;19.378;2022-08-04T13:46:49;98083.10;;;28.82;35.14
53526;BME280;40551;50.478;19.378;2022-08-04T13:49:22;98080.64;;;28.82;35.46
53526;BME280;40551;50.478;19.378;2022-08-04T13:52:11;98083.04;;;28.82;35.08
53526;BME280;40551;50.478;19.378;2022-08-04T13:54:42;98082.64;;;28.84;35.50
53526;BME280;40551;50.478;19.378;2022-08-04T13:57:14;98081.87;;;28.86;35.51
53526;BME280;40551;50.478;19.378;2022-08-04T13:59:47;98074.02;;;28.92;35.35
53526;BME280;40551;50.478;19.378;2022-08-04T14:02:27;98071.95;;;28.98;35.32
53526;BME280;40551;50.478;19.378;2022-08-04T14:05:09;98069.17;;;28.95;34.94
53526;BME280;40551;50.478;19.378;2022-08-04T14:07:54;98073.45;;;28.94;35.20
53526;BME280;40551;50.478;19.378;2022-08-04T14:10:27;98073.83;;;28.89;35.01
53526;BME280;40551;50.478;19.378;2022-08-04T14:12:56;98078.75;;;28.89;35.60